createdAt,value
2023-05-23T00:01:43.510Z,16.30
2023-05-23T00:04:11.015Z,16.30
2023-05-23T00:06:39.030Z,16.30
2023-05-23T00:09:06.250Z,16.30
2023-05-23T00:11:33.168Z,16.30
2023-05-23T00:14:01.376Z,16.30
2023-05-23T00:16:28.665Z,16.30
2023-05-23T00:18:57.777Z,16.20
2023-05-23T00:21:24.888Z,16.20
2023-05-23T00:23:51.836Z,16.20
2023-05-23T00:26:18.828Z,16.20
2023-05-23T00:28:45.737Z,16.20
2023-05-23T00:31:12.819Z,16.20
2023-05-23T00:33:39.773Z,16.20
2023-05-23T00:36:06.820Z,16.20
2023-05-23T00:38:33.751Z,16.20
2023-05-23T00:41:01.869Z,16.20
2023-05-23T00:43:29.592Z,16.20
2023-05-23T00:45:56.701Z,16.10
2023-05-23T00:48:27.191Z,16.00
2023-05-23T00:50:54.876Z,15.90
2023-05-23T00:53:22.527Z,15.90
2023-05-23T00:55:49.450Z,16.00
2023-05-23T00:58:17.887Z,15.90
2023-05-23T01:00:45.281Z,15.90
2023-05-23T01:03:18.263Z,16.00
2023-05-23T01:05:45.847Z,16.00
2023-05-23T01:08:12.876Z,16.00
2023-05-23T01:10:39.902Z,16.00
2023-05-23T01:13:18.811Z,16.10
2023-05-23T01:15:54.667Z,16.10
2023-05-23T01:18:43.947Z,16.10
2023-05-23T01:21:17.183Z,16.10
2023-05-23T01:24:10.551Z,16.10
2023-05-23T01:26:48.320Z,16.10
2023-05-23T01:29:25.690Z,16.00
2023-05-23T01:31:58.616Z,16.00
2023-05-23T01:34:25.688Z,15.90
2023-05-23T01:36:56.561Z,15.90
2023-05-23T01:39:24.484Z,15.90
2023-05-23T01:41:53.048Z,15.90
2023-05-23T01:44:21.454Z,15.90
2023-05-23T01:46:49.118Z,15.90
2023-05-23T01:49:18.551Z,15.90
2023-05-23T01:51:46.936Z,15.80
2023-05-23T01:54:17.042Z,15.80
2023-05-23T01:56:44.433Z,15.70
2023-05-23T01:59:12.309Z,15.60
2023-05-23T02:01:39.965Z,15.60
2023-05-23T02:04:07.045Z,15.50
2023-05-23T02:06:34.434Z,15.50
2023-05-23T02:09:01.555Z,15.50
2023-05-23T02:11:28.469Z,15.50
2023-05-23T02:13:55.411Z,15.40
2023-05-23T02:16:23.395Z,15.40
2023-05-23T02:18:52.799Z,15.40
2023-05-23T02:21:20.002Z,15.40
2023-05-23T02:23:46.934Z,15.30
2023-05-23T02:26:13.828Z,15.30
2023-05-23T02:28:41.414Z,15.40
2023-05-23T02:31:08.433Z,15.30
2023-05-23T02:33:35.518Z,15.30
2023-05-23T02:36:02.487Z,15.20
2023-05-23T02:38:30.927Z,15.20
2023-05-23T02:40:57.911Z,15.20
2023-05-23T02:43:24.883Z,15.20
2023-05-23T02:45:51.775Z,15.30
2023-05-23T02:48:19.072Z,15.30
2023-05-23T02:50:46.120Z,15.10
2023-05-23T02:53:13.076Z,15.00
2023-05-23T02:55:40.169Z,15.00
2023-05-23T02:58:07.268Z,15.00
2023-05-23T03:00:34.196Z,15.00
2023-05-23T03:03:01.884Z,15.00
2023-05-23T03:05:28.950Z,15.00
2023-05-23T03:07:55.990Z,15.00
2023-05-23T03:10:23.004Z,15.00
2023-05-23T03:12:50.010Z,15.00
2023-05-23T03:15:17.076Z,15.00
2023-05-23T03:17:44.199Z,15.00
2023-05-23T03:20:11.933Z,15.00
2023-05-23T03:22:39.054Z,15.00
2023-05-23T03:25:06.714Z,15.10
2023-05-23T03:27:33.758Z,15.20
2023-05-23T03:30:01.056Z,15.30
2023-05-23T03:32:28.076Z,15.30
2023-05-23T03:34:55.178Z,15.30
2023-05-23T03:37:22.362Z,15.40
2023-05-23T03:39:49.335Z,15.50
2023-05-23T03:42:16.307Z,15.70
2023-05-23T03:44:43.305Z,15.80
2023-05-23T03:47:10.367Z,15.90
2023-05-23T03:49:37.481Z,15.90
2023-05-23T03:52:04.529Z,16.10
2023-05-23T03:54:31.565Z,16.20
2023-05-23T03:56:58.607Z,16.20
2023-05-23T03:59:25.741Z,16.20
2023-05-23T04:01:52.767Z,16.30
2023-05-23T04:04:21.294Z,16.30
2023-05-23T04:06:48.512Z,16.20
2023-05-23T04:09:15.547Z,16.10
2023-05-23T04:11:43.052Z,16.10
2023-05-23T04:14:10.240Z,16.20
2023-05-23T04:16:38.505Z,16.30
2023-05-23T04:19:06.152Z,16.40
2023-05-23T04:21:33.435Z,16.50
2023-05-23T04:24:01.650Z,16.70
2023-05-23T04:26:28.988Z,16.80
2023-05-23T04:28:56.552Z,16.90
2023-05-23T04:31:23.630Z,17.00
2023-05-23T04:33:50.903Z,17.00
2023-05-23T04:36:18.313Z,17.00
2023-05-23T04:38:45.243Z,17.10
2023-05-23T04:41:12.393Z,17.10
2023-05-23T04:43:42.613Z,17.20
2023-05-23T04:46:10.294Z,17.30
2023-05-23T04:48:38.916Z,17.50
2023-05-23T04:51:09.024Z,17.70
2023-05-23T04:53:37.065Z,18.10
2023-05-23T04:56:04.108Z,18.70
2023-05-23T04:58:31.947Z,19.10
2023-05-23T05:00:59.006Z,19.50
2023-05-23T05:03:26.588Z,19.90
2023-05-23T05:05:53.912Z,20.30
2023-05-23T05:08:20.892Z,20.70
2023-05-23T05:10:48.020Z,20.70
2023-05-23T05:13:15.032Z,20.90
2023-05-23T05:15:42.664Z,21.10
2023-05-23T05:18:09.605Z,21.40
2023-05-23T05:20:36.593Z,21.90
2023-05-23T05:23:03.553Z,22.20
2023-05-23T05:25:32.461Z,22.30
2023-05-23T05:28:07.810Z,22.40
2023-05-23T05:30:37.952Z,22.70
2023-05-23T05:33:06.150Z,23.10
2023-05-23T05:35:34.168Z,23.60
2023-05-23T05:38:02.805Z,23.90
2023-05-23T05:40:29.757Z,24.30
2023-05-23T05:42:56.700Z,24.60
2023-05-23T05:45:23.712Z,24.80
2023-05-23T05:47:50.849Z,25.00
2023-05-23T05:50:17.942Z,25.30
2023-05-23T05:52:44.830Z,25.60
2023-05-23T05:55:12.191Z,25.60
2023-05-23T05:57:40.579Z,25.70
2023-05-23T06:00:15.576Z,25.80
2023-05-23T06:02:43.371Z,25.80
2023-05-23T06:05:12.520Z,25.90
2023-05-23T06:07:40.219Z,25.90
2023-05-23T06:10:08.818Z,25.80
2023-05-23T06:12:36.104Z,25.50
2023-05-23T06:15:03.105Z,25.30
2023-05-23T06:17:30.082Z,25.50
2023-05-23T06:19:57.023Z,25.60
2023-05-23T06:22:24.190Z,25.50
2023-05-23T06:24:51.381Z,25.30
2023-05-23T06:27:18.890Z,25.70
2023-05-23T06:29:46.087Z,26.10
2023-05-23T06:32:13.071Z,26.60
2023-05-23T06:34:40.131Z,26.60
2023-05-23T06:37:07.398Z,26.70
2023-05-23T06:39:34.303Z,26.90
2023-05-23T06:42:01.524Z,27.10
2023-05-23T06:44:28.493Z,27.30
2023-05-23T06:46:57.718Z,27.30
2023-05-23T06:49:25.528Z,27.50
2023-05-23T06:51:52.770Z,27.70
2023-05-23T06:54:20.158Z,27.90
2023-05-23T06:56:47.100Z,28.10
2023-05-23T06:59:14.024Z,28.30
2023-05-23T07:01:41.151Z,28.40
2023-05-23T07:04:08.262Z,28.30
2023-05-23T07:06:36.610Z,28.30
2023-05-23T07:09:04.221Z,28.20
2023-05-23T07:11:31.274Z,28.00
2023-05-23T07:13:59.029Z,27.90
2023-05-23T07:16:26.232Z,28.10
2023-05-23T07:18:53.262Z,28.40
2023-05-23T07:21:20.185Z,28.50
2023-05-23T07:23:47.092Z,28.70
2023-05-23T07:26:14.114Z,28.50
2023-05-23T07:28:41.100Z,28.50
2023-05-23T07:31:09.517Z,28.80
2023-05-23T07:33:36.706Z,29.00
2023-05-23T07:36:03.856Z,29.30
2023-05-23T07:38:30.798Z,29.10
2023-05-23T07:41:10.126Z,29.10
2023-05-23T07:43:38.256Z,29.10
2023-05-23T07:46:05.286Z,29.20
2023-05-23T07:48:32.440Z,29.20
2023-05-23T07:50:59.437Z,29.40
2023-05-23T07:53:26.522Z,29.60
2023-05-23T07:55:53.564Z,29.30
2023-05-23T07:58:20.524Z,29.30
2023-05-23T08:00:47.413Z,29.30
2023-05-23T08:03:14.508Z,29.10
2023-05-23T08:05:41.447Z,29.30
2023-05-23T08:08:08.370Z,29.40
2023-05-23T08:10:35.367Z,29.40
2023-05-23T08:13:06.893Z,29.40
2023-05-23T08:15:34.082Z,29.60
2023-05-23T08:18:01.282Z,29.80
2023-05-23T08:20:31.549Z,29.90
2023-05-23T08:23:00.564Z,30.00
2023-05-23T08:25:32.121Z,30.00
2023-05-23T08:28:00.195Z,30.10
2023-05-23T08:30:29.056Z,30.00
2023-05-23T08:32:57.142Z,30.00
2023-05-23T08:35:24.532Z,30.10
2023-05-23T08:37:52.554Z,30.10
2023-05-23T08:40:21.694Z,30.10
2023-05-23T08:42:49.856Z,30.10
2023-05-23T08:45:17.819Z,30.30
2023-05-23T08:47:45.987Z,30.50
2023-05-23T08:50:20.101Z,30.80
2023-05-23T08:52:56.724Z,30.60
2023-05-23T08:55:28.875Z,30.50
2023-05-23T08:58:00.612Z,30.50
2023-05-23T09:00:28.493Z,30.60
2023-05-23T09:02:55.802Z,30.60
2023-05-23T09:05:23.086Z,30.60
2023-05-23T09:07:52.362Z,30.50
2023-05-23T09:10:22.636Z,30.30
2023-05-23T09:12:50.245Z,30.40
2023-05-23T09:15:17.461Z,30.50
2023-05-23T09:17:45.526Z,30.50
2023-05-23T09:20:17.644Z,30.20
2023-05-23T09:22:48.714Z,30.50
2023-05-23T09:25:16.178Z,30.40
2023-05-23T09:27:45.934Z,30.50
2023-05-23T09:30:15.120Z,30.60
2023-05-23T09:32:42.583Z,30.60
2023-05-23T09:35:14.300Z,30.60
2023-05-23T09:37:48.080Z,30.30
2023-05-23T09:40:16.032Z,30.20
2023-05-23T09:42:45.200Z,30.10
2023-05-23T09:45:17.169Z,29.70
2023-05-23T09:47:53.582Z,29.60
2023-05-23T09:50:21.833Z,29.80
2023-05-23T09:52:49.285Z,29.90
2023-05-23T09:55:16.263Z,29.60
2023-05-23T09:57:45.556Z,29.20
2023-05-23T10:00:14.041Z,28.70
2023-05-23T10:02:59.778Z,28.20
2023-05-23T10:05:49.256Z,28.10
2023-05-23T10:08:27.395Z,28.10
2023-05-23T10:10:57.207Z,28.10
2023-05-23T10:13:27.440Z,28.50
2023-05-23T10:16:12.699Z,28.50
2023-05-23T10:18:48.895Z,28.90
2023-05-23T10:21:23.166Z,28.90
2023-05-23T10:23:50.569Z,28.90
2023-05-23T10:26:18.625Z,28.90
2023-05-23T10:28:49.951Z,28.70
2023-05-23T10:31:17.674Z,28.60
2023-05-23T10:33:55.123Z,28.60
2023-05-23T10:36:51.035Z,28.50
2023-05-23T10:39:25.268Z,28.60
2023-05-23T10:41:56.600Z,28.60
2023-05-23T10:44:31.202Z,28.60
2023-05-23T10:47:02.900Z,28.60
2023-05-23T10:49:40.280Z,28.40
2023-05-23T10:52:08.642Z,28.40
2023-05-23T10:54:36.995Z,28.40
2023-05-23T10:57:05.843Z,28.40
2023-05-23T10:59:32.967Z,28.40
2023-05-23T11:04:29.638Z,28.30
2023-05-23T11:06:57.204Z,28.20
2023-05-23T11:09:24.618Z,28.00
2023-05-23T11:11:54.600Z,27.90
2023-05-23T11:14:32.880Z,27.90
2023-05-23T11:17:30.429Z,27.90
2023-05-23T11:20:07.695Z,28.10
2023-05-23T11:22:35.946Z,28.10
2023-05-23T11:25:09.313Z,28.10
2023-05-23T11:27:38.320Z,28.10
2023-05-23T11:30:09.775Z,28.10
2023-05-23T11:32:37.659Z,27.90
2023-05-23T11:35:11.600Z,27.80
2023-05-23T11:37:40.038Z,27.80
2023-05-23T11:40:32.404Z,27.80
2023-05-23T11:43:01.075Z,27.80
2023-05-23T11:45:31.917Z,27.90
2023-05-23T11:47:59.171Z,28.00
2023-05-23T11:50:26.284Z,28.00
2023-05-23T11:52:55.543Z,28.00
2023-05-23T11:55:23.405Z,27.90
2023-05-23T11:57:51.978Z,27.80
2023-05-23T12:00:19.999Z,27.70
2023-05-23T12:02:49.961Z,27.70
2023-05-23T12:05:17.347Z,27.70
2023-05-23T12:07:49.526Z,27.70
2023-05-23T12:10:18.095Z,27.80
2023-05-23T12:12:45.554Z,27.70
2023-05-23T12:15:13.475Z,27.60
2023-05-23T12:17:50.968Z,27.70
2023-05-23T12:20:19.855Z,27.70
2023-05-23T12:22:46.861Z,27.70
2023-05-23T12:25:13.809Z,27.90
2023-05-23T12:27:44.285Z,27.90
2023-05-23T12:30:19.223Z,27.90
2023-05-23T12:32:47.463Z,27.90
2023-05-23T12:35:16.619Z,27.50
2023-05-23T12:37:47.062Z,27.30
2023-05-23T12:40:15.975Z,27.40
2023-05-23T12:42:53.979Z,27.50
2023-05-23T12:45:25.098Z,27.60
2023-05-23T12:47:54.097Z,27.40
2023-05-23T12:50:21.441Z,27.60
2023-05-23T12:52:48.471Z,27.70
2023-05-23T12:55:15.512Z,27.50
2023-05-23T12:57:42.421Z,27.60
2023-05-23T13:00:10.196Z,27.70
2023-05-23T13:02:37.459Z,27.60
2023-05-23T13:05:04.624Z,27.50
2023-05-23T13:07:31.676Z,27.60
2023-05-23T13:09:58.659Z,27.60
2023-05-23T13:12:25.661Z,27.60
2023-05-23T13:14:52.662Z,27.50
2023-05-23T13:17:19.944Z,27.40
2023-05-23T13:19:47.061Z,27.30
2023-05-23T13:22:14.008Z,27.30
2023-05-23T13:24:43.673Z,27.50
2023-05-23T13:27:10.851Z,27.70
2023-05-23T13:29:37.849Z,27.80
2023-05-23T13:32:05.505Z,27.80
2023-05-23T13:34:32.596Z,27.80
2023-05-23T13:36:59.461Z,27.90
2023-05-23T13:39:26.364Z,27.80
2023-05-23T13:41:53.307Z,27.90
2023-05-23T13:44:20.210Z,27.80
2023-05-23T13:46:47.115Z,27.80
2023-05-23T13:49:14.121Z,27.90
2023-05-23T13:51:42.020Z,27.90
2023-05-23T13:54:09.011Z,27.90
2023-05-23T13:56:36.938Z,27.90
2023-05-23T13:59:03.844Z,27.90
2023-05-23T14:01:30.874Z,27.70
2023-05-23T14:03:57.782Z,27.70
2023-05-23T14:06:24.709Z,27.70
2023-05-23T14:08:51.636Z,27.60
2023-05-23T14:11:18.527Z,27.60
2023-05-23T14:13:45.530Z,27.60
2023-05-23T14:16:12.564Z,27.70
2023-05-23T14:18:39.515Z,27.80
2023-05-23T14:21:06.445Z,27.80
2023-05-23T14:23:33.342Z,27.60
2023-05-23T14:26:00.203Z,27.60
2023-05-23T14:28:27.591Z,27.70
2023-05-23T14:30:55.799Z,27.70
2023-05-23T14:33:22.952Z,27.80
2023-05-23T14:35:50.576Z,27.90
2023-05-23T14:38:18.151Z,27.80
2023-05-23T14:40:45.202Z,27.90
2023-05-23T14:43:12.310Z,28.00
2023-05-23T14:45:39.496Z,28.00
2023-05-23T14:48:06.989Z,27.90
2023-05-23T14:50:34.115Z,28.00
2023-05-23T14:53:01.137Z,28.10
2023-05-23T14:55:28.101Z,28.00
2023-05-23T14:57:55.047Z,28.10
2023-05-23T15:00:22.202Z,28.20
2023-05-23T15:02:49.215Z,28.10
2023-05-23T15:05:17.204Z,28.10
2023-05-23T15:07:45.034Z,28.00
2023-05-23T15:10:12.033Z,28.00
2023-05-23T15:12:38.934Z,28.00
2023-05-23T15:15:06.275Z,28.10
2023-05-23T15:17:34.066Z,27.70
2023-05-23T15:20:02.359Z,27.30
2023-05-23T15:22:38.476Z,27.00
2023-05-23T15:25:08.117Z,26.60
2023-05-23T15:27:35.027Z,26.40
2023-05-23T15:30:02.634Z,26.20
2023-05-23T15:32:29.910Z,26.00
2023-05-23T15:34:56.920Z,25.80
2023-05-23T15:37:23.903Z,25.50
2023-05-23T15:39:50.808Z,25.50
2023-05-23T15:42:17.707Z,25.50
2023-05-23T15:44:44.643Z,25.30
2023-05-23T15:47:11.583Z,25.20
2023-05-23T15:49:38.516Z,25.30
2023-05-23T15:52:05.619Z,25.10
2023-05-23T15:54:32.644Z,24.80
2023-05-23T15:56:59.605Z,24.60
2023-05-23T15:59:26.566Z,24.50
2023-05-23T16:01:53.580Z,24.40
2023-05-23T16:04:20.720Z,24.30
2023-05-23T16:06:47.662Z,24.10
2023-05-23T16:09:14.568Z,24.10
2023-05-23T16:11:41.807Z,24.10
2023-05-23T16:14:08.811Z,24.00
2023-05-23T16:16:35.777Z,23.90
2023-05-23T16:19:03.501Z,23.90
2023-05-23T16:21:30.912Z,23.80
2023-05-23T16:23:57.872Z,23.70
2023-05-23T16:26:24.771Z,23.50
2023-05-23T16:28:51.726Z,23.30
2023-05-23T16:31:18.695Z,23.00
2023-05-23T16:33:46.049Z,23.00
2023-05-23T16:36:13.200Z,23.00
2023-05-23T16:38:40.222Z,23.00
2023-05-23T16:41:07.137Z,23.00
2023-05-23T16:43:35.024Z,23.00
2023-05-23T16:46:02.284Z,23.00
2023-05-23T16:48:29.306Z,23.00
2023-05-23T16:50:57.898Z,22.90
2023-05-23T16:53:24.907Z,22.80
2023-05-23T16:55:51.924Z,22.80
2023-05-23T16:58:20.951Z,22.80
2023-05-23T17:00:48.860Z,22.90
2023-05-23T17:03:16.348Z,22.80
2023-05-23T17:05:43.676Z,22.70
2023-05-23T17:08:10.911Z,22.80
2023-05-23T17:10:38.081Z,22.90
2023-05-23T17:13:05.084Z,23.00
2023-05-23T17:15:32.044Z,23.10
2023-05-23T17:17:59.054Z,23.20
2023-05-23T17:20:27.122Z,23.10
2023-05-23T17:22:54.805Z,23.10
2023-05-23T17:25:22.078Z,23.10
2023-05-23T17:27:49.302Z,23.00
2023-05-23T17:30:18.674Z,23.00
2023-05-23T17:32:47.035Z,23.00
2023-05-23T17:35:14.192Z,23.20
2023-05-23T17:37:45.159Z,23.20
2023-05-23T17:40:13.186Z,23.20
2023-05-23T17:42:41.121Z,23.10
2023-05-23T17:45:11.853Z,23.00
2023-05-23T17:47:39.400Z,22.90
2023-05-23T17:50:07.578Z,22.70
2023-05-23T17:52:35.134Z,22.60
2023-05-23T17:55:02.364Z,22.50
2023-05-23T17:57:31.205Z,22.40
2023-05-23T17:59:59.467Z,22.40
2023-05-23T18:02:29.236Z,22.30
2023-05-23T18:04:56.711Z,22.20
2023-05-23T18:07:23.737Z,22.10
2023-05-23T18:09:50.744Z,22.10
2023-05-23T18:12:18.005Z,22.00
2023-05-23T18:14:45.692Z,21.80
2023-05-23T18:17:12.964Z,21.70
2023-05-23T18:19:42.273Z,21.60
2023-05-23T18:22:09.726Z,21.50
2023-05-23T18:24:36.840Z,21.50
2023-05-23T18:27:04.631Z,21.40
2023-05-23T18:29:31.858Z,21.30
2023-05-23T18:31:58.907Z,21.30
2023-05-23T18:34:28.523Z,21.30
2023-05-23T18:36:56.228Z,21.20
2023-05-23T18:39:23.174Z,21.20
2023-05-23T18:41:50.058Z,21.10
2023-05-23T18:44:20.401Z,21.10
2023-05-23T18:46:48.281Z,21.10
2023-05-23T18:49:15.705Z,20.90
2023-05-23T18:51:43.085Z,20.80
2023-05-23T18:54:10.044Z,20.80
2023-05-23T18:56:36.980Z,20.70
2023-05-23T18:59:03.989Z,20.70
2023-05-23T19:01:31.072Z,20.60
2023-05-23T19:03:58.160Z,20.50
2023-05-23T19:06:25.393Z,20.50
2023-05-23T19:08:52.526Z,20.60
2023-05-23T19:11:19.450Z,20.60
2023-05-23T19:13:46.391Z,20.60
2023-05-23T19:16:13.744Z,20.50
2023-05-23T19:18:40.796Z,20.30
2023-05-23T19:21:07.823Z,20.30
2023-05-23T19:23:34.827Z,20.10
2023-05-23T19:26:02.238Z,20.00
2023-05-23T19:28:29.147Z,19.90
2023-05-23T19:30:56.124Z,19.80
2023-05-23T19:33:23.138Z,19.80
2023-05-23T19:35:50.269Z,19.60
2023-05-23T19:38:17.227Z,19.60
2023-05-23T19:40:46.401Z,19.60
2023-05-23T19:43:13.447Z,19.60
2023-05-23T19:45:40.449Z,19.70
2023-05-23T19:48:07.429Z,19.70
2023-05-23T19:50:34.659Z,19.70
2023-05-23T19:53:01.582Z,19.60
2023-05-23T19:55:28.691Z,19.60
2023-05-23T19:57:55.696Z,19.50
2023-05-23T20:00:22.813Z,19.50
2023-05-23T20:02:50.636Z,19.50
2023-05-23T20:05:19.381Z,19.40
2023-05-23T20:07:46.581Z,19.30
2023-05-23T20:10:14.316Z,19.40
2023-05-23T20:12:41.849Z,19.40
2023-05-23T20:15:09.138Z,19.30
2023-05-23T20:17:36.423Z,19.30
2023-05-23T20:20:04.826Z,19.20
2023-05-23T20:22:31.735Z,19.10
2023-05-23T20:24:58.642Z,19.20
2023-05-23T20:27:25.627Z,19.40
2023-05-23T20:29:52.537Z,19.50
2023-05-23T20:32:19.550Z,19.50
2023-05-23T20:34:46.871Z,19.50
2023-05-23T20:37:14.604Z,19.40
2023-05-23T20:39:41.601Z,19.40
2023-05-23T20:42:10.522Z,19.20
2023-05-23T20:44:40.058Z,19.30
2023-05-23T20:47:07.179Z,19.30
2023-05-23T20:49:35.022Z,19.30
2023-05-23T20:52:02.125Z,19.30
2023-05-23T20:54:29.126Z,19.20
2023-05-23T20:56:56.586Z,19.10
2023-05-23T20:59:26.297Z,19.00
2023-05-23T21:01:53.561Z,18.90
2023-05-23T21:04:20.708Z,18.80
2023-05-23T21:06:47.866Z,19.00
2023-05-23T21:09:16.257Z,19.10
2023-05-23T21:11:43.332Z,19.20
2023-05-23T21:14:10.306Z,19.20
2023-05-23T21:16:37.941Z,19.20
2023-05-23T21:19:05.034Z,19.20
2023-05-23T21:21:32.084Z,19.30
2023-05-23T21:23:59.053Z,19.40
2023-05-23T21:26:25.978Z,19.30
2023-05-23T21:28:52.902Z,19.30
2023-05-23T21:31:26.565Z,19.30
2023-05-23T21:34:11.049Z,19.30
2023-05-23T21:36:46.025Z,19.30
2023-05-23T21:39:12.960Z,19.30
2023-05-23T21:41:39.858Z,19.30
2023-05-23T21:44:06.809Z,19.20
2023-05-23T21:46:33.873Z,19.20
2023-05-23T21:49:01.815Z,19.10
2023-05-23T21:51:28.749Z,19.10
2023-05-23T21:53:55.794Z,19.10
2023-05-23T21:56:22.787Z,19.20
2023-05-23T21:58:49.693Z,19.20
2023-05-23T22:01:16.662Z,19.20
2023-05-23T22:03:45.192Z,19.10
2023-05-23T22:06:12.176Z,19.20
2023-05-23T22:08:39.133Z,19.10
2023-05-23T22:11:09.541Z,19.10
2023-05-23T22:13:37.010Z,19.20
2023-05-23T22:16:05.378Z,19.20
2023-05-23T22:18:51.065Z,19.20
2023-05-23T22:21:19.429Z,19.10
2023-05-23T22:23:46.426Z,19.10
2023-05-23T22:26:14.110Z,19.10
2023-05-23T22:28:41.047Z,19.00
2023-05-23T22:31:08.850Z,19.00
2023-05-23T22:33:37.422Z,19.00
2023-05-23T22:36:04.709Z,19.00
2023-05-23T22:38:32.501Z,19.00
2023-05-23T22:40:59.393Z,18.90
2023-05-23T22:43:26.624Z,18.90
2023-05-23T22:45:53.605Z,18.90
2023-05-23T22:48:20.601Z,18.90
2023-05-23T22:50:47.592Z,18.80
2023-05-23T22:53:16.858Z,18.80
2023-05-23T22:55:43.947Z,18.80
2023-05-23T22:58:11.078Z,18.70
2023-05-23T23:00:37.968Z,18.70
2023-05-23T23:03:05.031Z,18.80
2023-05-23T23:05:32.114Z,18.80
2023-05-23T23:07:59.093Z,18.80
2023-05-23T23:10:25.975Z,18.80
2023-05-23T23:12:52.922Z,18.80
2023-05-23T23:15:19.841Z,18.80
2023-05-23T23:17:47.019Z,18.80
2023-05-23T23:20:14.970Z,18.80
2023-05-23T23:22:41.924Z,18.80
2023-05-23T23:25:12.408Z,18.80
2023-05-23T23:27:39.902Z,18.80
2023-05-23T23:30:08.731Z,18.80
2023-05-23T23:32:35.823Z,18.80
2023-05-23T23:35:02.807Z,18.80
2023-05-23T23:37:29.787Z,18.80
2023-05-23T23:39:56.709Z,18.80
2023-05-23T23:42:23.594Z,18.80
2023-05-23T23:44:50.501Z,18.90
2023-05-23T23:47:17.350Z,18.80
2023-05-23T23:49:44.313Z,18.80
2023-05-23T23:52:13.038Z,18.80
2023-05-23T23:54:39.964Z,18.80
2023-05-23T23:57:06.870Z,18.70
2023-05-23T23:59:33.777Z,18.70
